sensor_id;sensor_type;location;lat;lon;timestamp;P1;durP1;ratioP1;P2;durP2;ratioP2
665;SDS011;315;48.738;9.126;2022-12-20T00:02:06;10.13;;;9.00;;
665;SDS011;315;48.738;9.126;2022-12-20T00:04:32;9.80;;;8.60;;
665;SDS011;315;48.738;9.126;2022-12-20T00:06:58;10.50;;;9.03;;
665;SDS011;315;48.738;9.126;2022-12-20T00:09:23;10.00;;;8.10;;
665;SDS011;315;48.738;9.126;2022-12-20T00:11:49;10.93;;;9.83;;
665;SDS011;315;48.738;9.126;2022-12-20T00:14:15;10.27;;;9.27;;
665;SDS011;315;48.738;9.126;2022-12-20T00:16:41;10.30;;;8.53;;
665;SDS011;315;48.738;9.126;2022-12-20T00:19:08;12.00;;;10.60;;
665;SDS011;315;48.738;9.126;2022-12-20T00:21:35;13.47;;;10.00;;
665;SDS011;315;48.738;9.126;2022-12-20T00:24:02;9.87;;;8.87;;
665;SDS011;315;48.738;9.126;2022-12-20T00:26:29;10.63;;;8.50;;
665;SDS011;315;48.738;9.126;2022-12-20T00:28:56;11.70;;;9.63;;
665;SDS011;315;48.738;9.126;2022-12-20T00:31:23;9.33;;;8.43;;
665;SDS011;315;48.738;9.126;2022-12-20T00:33:51;8.60;;;7.80;;
665;SDS011;315;48.738;9.126;2022-12-20T00:36:18;10.73;;;9.47;;
665;SDS011;315;48.738;9.126;2022-12-20T00:38:44;12.23;;;8.97;;
665;SDS011;315;48.738;9.126;2022-12-20T00:41:12;8.87;;;7.97;;
665;SDS011;315;48.738;9.126;2022-12-20T00:43:43;12.70;;;8.20;;
665;SDS011;315;48.738;9.126;2022-12-20T00:46:09;13.40;;;9.20;;
665;SDS011;315;48.738;9.126;2022-12-20T00:48:35;8.07;;;7.27;;
665;SDS011;315;48.738;9.126;2022-12-20T00:51:03;11.73;;;10.53;;
665;SDS011;315;48.738;9.126;2022-12-20T00:53:30;9.53;;;8.47;;
665;SDS011;315;48.738;9.126;2022-12-20T00:55:56;10.10;;;9.10;;
665;SDS011;315;48.738;9.126;2022-12-20T00:58:22;12.67;;;10.13;;
665;SDS011;315;48.738;9.126;2022-12-20T01:00:48;14.83;;;10.50;;
665;SDS011;315;48.738;9.126;2022-12-20T01:03:14;12.73;;;10.87;;
665;SDS011;315;48.738;9.126;2022-12-20T01:05:48;16.77;;;12.60;;
665;SDS011;315;48.738;9.126;2022-12-20T01:08:17;14.40;;;10.17;;
665;SDS011;315;48.738;9.126;2022-12-20T01:10:43;14.07;;;12.43;;
665;SDS011;315;48.738;9.126;2022-12-20T01:13:09;19.83;;;13.50;;
665;SDS011;315;48.738;9.126;2022-12-20T01:15:34;16.63;;;13.93;;
665;SDS011;315;48.738;9.126;2022-12-20T01:18:00;14.70;;;11.27;;
665;SDS011;315;48.738;9.126;2022-12-20T01:20:26;13.50;;;12.10;;
665;SDS011;315;48.738;9.126;2022-12-20T01:22:51;16.00;;;11.73;;
665;SDS011;315;48.738;9.126;2022-12-20T01:25:17;12.60;;;11.23;;
665;SDS011;315;48.738;9.126;2022-12-20T01:27:43;13.47;;;11.40;;
665;SDS011;315;48.738;9.126;2022-12-20T01:30:08;13.67;;;10.27;;
665;SDS011;315;48.738;9.126;2022-12-20T01:32:34;12.80;;;11.40;;
665;SDS011;315;48.738;9.126;2022-12-20T01:35:00;14.60;;;10.70;;
665;SDS011;315;48.738;9.126;2022-12-20T01:37:26;15.47;;;11.20;;
665;SDS011;315;48.738;9.126;2022-12-20T01:39:51;15.33;;;11.80;;
665;SDS011;315;48.738;9.126;2022-12-20T01:42:17;15.90;;;13.10;;
665;SDS011;315;48.738;9.126;2022-12-20T01:47:08;17.53;;;15.50;;
665;SDS011;315;48.738;9.126;2022-12-20T01:49:37;21.03;;;15.83;;
665;SDS011;315;48.738;9.126;2022-12-20T01:52:11;19.30;;;15.80;;
665;SDS011;315;48.738;9.126;2022-12-20T01:57:12;17.93;;;14.77;;
665;SDS011;315;48.738;9.126;2022-12-20T01:59:42;18.53;;;16.20;;
665;SDS011;315;48.738;9.126;2022-12-20T02:02:10;18.10;;;16.20;;
665;SDS011;315;48.738;9.126;2022-12-20T02:04:37;19.00;;;16.43;;
665;SDS011;315;48.738;9.126;2022-12-20T02:07:03;23.17;;;19.40;;
665;SDS011;315;48.738;9.126;2022-12-20T02:09:30;20.57;;;17.43;;
665;SDS011;315;48.738;9.126;2022-12-20T02:17:30;21.60;;;16.77;;
665;SDS011;315;48.738;9.126;2022-12-20T02:20:15;21.40;;;18.60;;
665;SDS011;315;48.738;9.126;2022-12-20T02:28:00;21.80;;;16.40;;
665;SDS011;315;48.738;9.126;2022-12-20T02:30:39;19.70;;;17.20;;
665;SDS011;315;48.738;9.126;2022-12-20T02:33:09;19.30;;;16.57;;
665;SDS011;315;48.738;9.126;2022-12-20T02:35:36;22.70;;;18.53;;
665;SDS011;315;48.738;9.126;2022-12-20T02:38:03;20.97;;;17.87;;
665;SDS011;315;48.738;9.126;2022-12-20T02:40:48;20.40;;;17.50;;
665;SDS011;315;48.738;9.126;2022-12-20T02:43:18;25.00;;;18.00;;
665;SDS011;315;48.738;9.126;2022-12-20T02:46:04;19.73;;;16.93;;
665;SDS011;315;48.738;9.126;2022-12-20T02:48:31;19.10;;;15.27;;
665;SDS011;315;48.738;9.126;2022-12-20T02:50:59;18.17;;;16.20;;
665;SDS011;315;48.738;9.126;2022-12-20T02:53:26;19.93;;;16.30;;
665;SDS011;315;48.738;9.126;2022-12-20T02:58:46;15.90;;;14.20;;
665;SDS011;315;48.738;9.126;2022-12-20T03:01:23;19.00;;;14.37;;
665;SDS011;315;48.738;9.126;2022-12-20T03:03:51;18.87;;;14.67;;
665;SDS011;315;48.738;9.126;2022-12-20T03:06:18;25.07;;;15.33;;
665;SDS011;315;48.738;9.126;2022-12-20T03:08:44;15.17;;;12.63;;
665;SDS011;315;48.738;9.126;2022-12-20T03:11:10;17.20;;;13.37;;
665;SDS011;315;48.738;9.126;2022-12-20T03:13:37;17.13;;;13.67;;
665;SDS011;315;48.738;9.126;2022-12-20T03:16:02;18.07;;;14.17;;
665;SDS011;315;48.738;9.126;2022-12-20T03:18:28;18.20;;;15.03;;
665;SDS011;315;48.738;9.126;2022-12-20T03:20:54;15.40;;;11.43;;
665;SDS011;315;48.738;9.126;2022-12-20T03:23:19;15.40;;;11.60;;
665;SDS011;315;48.738;9.126;2022-12-20T03:25:46;12.10;;;9.33;;
665;SDS011;315;48.738;9.126;2022-12-20T03:28:11;16.73;;;12.00;;
665;SDS011;315;48.738;9.126;2022-12-20T03:30:37;12.03;;;10.47;;
665;SDS011;315;48.738;9.126;2022-12-20T03:33:02;11.93;;;10.30;;
665;SDS011;315;48.738;9.126;2022-12-20T03:35:28;12.67;;;11.33;;
665;SDS011;315;48.738;9.126;2022-12-20T03:37:53;12.37;;;10.20;;
665;SDS011;315;48.738;9.126;2022-12-20T03:40:20;12.90;;;10.17;;
665;SDS011;315;48.738;9.126;2022-12-20T03:42:46;15.30;;;12.53;;
665;SDS011;315;48.738;9.126;2022-12-20T03:45:11;15.17;;;12.50;;
665;SDS011;315;48.738;9.126;2022-12-20T03:47:37;12.90;;;8.93;;
665;SDS011;315;48.738;9.126;2022-12-20T03:50:03;11.23;;;8.73;;
665;SDS011;315;48.738;9.126;2022-12-20T03:52:30;9.80;;;8.10;;
665;SDS011;315;48.738;9.126;2022-12-20T03:54:56;10.30;;;8.93;;
665;SDS011;315;48.738;9.126;2022-12-20T03:57:21;10.10;;;8.60;;
665;SDS011;315;48.738;9.126;2022-12-20T03:59:47;9.53;;;8.60;;
665;SDS011;315;48.738;9.126;2022-12-20T04:02:13;10.37;;;8.40;;
665;SDS011;315;48.738;9.126;2022-12-20T04:04:38;9.20;;;7.30;;
665;SDS011;315;48.738;9.126;2022-12-20T04:07:04;9.13;;;8.00;;
665;SDS011;315;48.738;9.126;2022-12-20T04:09:29;11.13;;;8.83;;
665;SDS011;315;48.738;9.126;2022-12-20T04:11:55;10.07;;;7.67;;
665;SDS011;315;48.738;9.126;2022-12-20T04:14:20;9.03;;;7.67;;
665;SDS011;315;48.738;9.126;2022-12-20T04:16:46;9.77;;;7.43;;
665;SDS011;315;48.738;9.126;2022-12-20T04:19:11;10.57;;;7.93;;
665;SDS011;315;48.738;9.126;2022-12-20T04:21:37;10.57;;;7.53;;
665;SDS011;315;48.738;9.126;2022-12-20T04:24:03;10.00;;;7.97;;
665;SDS011;315;48.738;9.126;2022-12-20T04:26:30;8.80;;;7.90;;
665;SDS011;315;48.738;9.126;2022-12-20T04:28:56;12.13;;;8.50;;
665;SDS011;315;48.738;9.126;2022-12-20T04:31:22;9.40;;;7.73;;
665;SDS011;315;48.738;9.126;2022-12-20T04:33:47;7.97;;;7.20;;
665;SDS011;315;48.738;9.126;2022-12-20T04:36:13;9.27;;;6.57;;
665;SDS011;315;48.738;9.126;2022-12-20T04:38:39;7.50;;;6.80;;
665;SDS011;315;48.738;9.126;2022-12-20T04:41:05;7.73;;;6.77;;
665;SDS011;315;48.738;9.126;2022-12-20T04:43:31;7.30;;;6.60;;
665;SDS011;315;48.738;9.126;2022-12-20T04:45:56;17.67;;;7.70;;
665;SDS011;315;48.738;9.126;2022-12-20T04:48:23;10.07;;;6.90;;
665;SDS011;315;48.738;9.126;2022-12-20T04:50:53;9.30;;;7.53;;
665;SDS011;315;48.738;9.126;2022-12-20T04:53:20;12.70;;;8.87;;
665;SDS011;315;48.738;9.126;2022-12-20T04:56:05;10.63;;;9.07;;
665;SDS011;315;48.738;9.126;2022-12-20T04:58:32;9.10;;;8.10;;
665;SDS011;315;48.738;9.126;2022-12-20T05:00:57;13.37;;;10.60;;
665;SDS011;315;48.738;9.126;2022-12-20T05:03:23;9.50;;;8.60;;
665;SDS011;315;48.738;9.126;2022-12-20T05:05:49;13.33;;;9.13;;
665;SDS011;315;48.738;9.126;2022-12-20T05:08:15;9.80;;;8.00;;
665;SDS011;315;48.738;9.126;2022-12-20T05:10:42;12.80;;;8.90;;
665;SDS011;315;48.738;9.126;2022-12-20T05:13:08;7.97;;;7.17;;
665;SDS011;315;48.738;9.126;2022-12-20T05:15:34;9.10;;;7.73;;
665;SDS011;315;48.738;9.126;2022-12-20T05:18:00;7.67;;;6.60;;
665;SDS011;315;48.738;9.126;2022-12-20T05:20:26;7.67;;;6.63;;
665;SDS011;315;48.738;9.126;2022-12-20T05:22:53;9.07;;;6.90;;
665;SDS011;315;48.738;9.126;2022-12-20T05:25:38;7.77;;;6.70;;
665;SDS011;315;48.738;9.126;2022-12-20T05:28:24;10.80;;;6.23;;
665;SDS011;315;48.738;9.126;2022-12-20T05:30:50;8.10;;;7.23;;
665;SDS011;315;48.738;9.126;2022-12-20T05:33:16;6.93;;;6.23;;
665;SDS011;315;48.738;9.126;2022-12-20T05:35:41;8.90;;;7.10;;
665;SDS011;315;48.738;9.126;2022-12-20T05:38:07;8.57;;;6.60;;
665;SDS011;315;48.738;9.126;2022-12-20T05:40:32;7.87;;;7.07;;
665;SDS011;315;48.738;9.126;2022-12-20T05:42:58;8.37;;;6.37;;
665;SDS011;315;48.738;9.126;2022-12-20T05:45:24;8.07;;;6.70;;
665;SDS011;315;48.738;9.126;2022-12-20T05:47:50;8.43;;;7.20;;
665;SDS011;315;48.738;9.126;2022-12-20T05:50:16;7.23;;;6.50;;
665;SDS011;315;48.738;9.126;2022-12-20T05:52:41;9.70;;;6.83;;
665;SDS011;315;48.738;9.126;2022-12-20T05:55:07;11.03;;;7.47;;
665;SDS011;315;48.738;9.126;2022-12-20T05:57:33;7.57;;;6.60;;
665;SDS011;315;48.738;9.126;2022-12-20T05:59:58;8.57;;;7.67;;
665;SDS011;315;48.738;9.126;2022-12-20T06:02:24;8.17;;;6.40;;
665;SDS011;315;48.738;9.126;2022-12-20T06:04:49;6.17;;;5.50;;
665;SDS011;315;48.738;9.126;2022-12-20T06:07:15;6.33;;;5.73;;
665;SDS011;315;48.738;9.126;2022-12-20T06:09:40;7.73;;;5.83;;
665;SDS011;315;48.738;9.126;2022-12-20T06:12:06;9.17;;;6.23;;
665;SDS011;315;48.738;9.126;2022-12-20T06:14:31;9.10;;;6.30;;
665;SDS011;315;48.738;9.126;2022-12-20T06:16:57;7.90;;;6.43;;
665;SDS011;315;48.738;9.126;2022-12-20T06:19:22;6.77;;;5.83;;
665;SDS011;315;48.738;9.126;2022-12-20T06:21:48;9.97;;;5.93;;
665;SDS011;315;48.738;9.126;2022-12-20T06:24:13;8.57;;;6.87;;
665;SDS011;315;48.738;9.126;2022-12-20T06:26:39;8.20;;;7.30;;
665;SDS011;315;48.738;9.126;2022-12-20T06:29:05;8.23;;;7.03;;
665;SDS011;315;48.738;9.126;2022-12-20T06:31:33;8.03;;;6.57;;
665;SDS011;315;48.738;9.126;2022-12-20T06:33:58;7.63;;;6.40;;
665;SDS011;315;48.738;9.126;2022-12-20T06:36:24;8.20;;;6.57;;
665;SDS011;315;48.738;9.126;2022-12-20T06:38:50;9.80;;;6.37;;
665;SDS011;315;48.738;9.126;2022-12-20T06:41:16;6.87;;;6.17;;
665;SDS011;315;48.738;9.126;2022-12-20T06:43:41;8.23;;;5.97;;
665;SDS011;315;48.738;9.126;2022-12-20T06:46:07;6.80;;;6.03;;
665;SDS011;315;48.738;9.126;2022-12-20T06:48:33;9.30;;;6.60;;
665;SDS011;315;48.738;9.126;2022-12-20T06:50:58;6.97;;;5.57;;
665;SDS011;315;48.738;9.126;2022-12-20T06:53:24;10.33;;;6.87;;
665;SDS011;315;48.738;9.126;2022-12-20T06:55:49;8.93;;;5.27;;
665;SDS011;315;48.738;9.126;2022-12-20T06:58:16;6.77;;;5.97;;
665;SDS011;315;48.738;9.126;2022-12-20T07:00:42;7.67;;;5.87;;
665;SDS011;315;48.738;9.126;2022-12-20T07:03:08;8.47;;;6.80;;
665;SDS011;315;48.738;9.126;2022-12-20T07:05:33;7.10;;;5.87;;
665;SDS011;315;48.738;9.126;2022-12-20T07:07:59;6.47;;;5.87;;
665;SDS011;315;48.738;9.126;2022-12-20T07:10:26;7.43;;;6.73;;
665;SDS011;315;48.738;9.126;2022-12-20T07:12:52;8.10;;;6.10;;
665;SDS011;315;48.738;9.126;2022-12-20T07:15:17;9.73;;;6.60;;
665;SDS011;315;48.738;9.126;2022-12-20T07:17:43;6.97;;;6.27;;
665;SDS011;315;48.738;9.126;2022-12-20T07:20:09;7.57;;;6.03;;
665;SDS011;315;48.738;9.126;2022-12-20T07:22:36;7.43;;;6.60;;
665;SDS011;315;48.738;9.126;2022-12-20T07:25:01;7.13;;;5.60;;
665;SDS011;315;48.738;9.126;2022-12-20T07:27:28;6.77;;;5.47;;
665;SDS011;315;48.738;9.126;2022-12-20T07:29:53;5.67;;;5.20;;
665;SDS011;315;48.738;9.126;2022-12-20T07:32:19;9.83;;;5.10;;
665;SDS011;315;48.738;9.126;2022-12-20T07:34:44;4.93;;;4.40;;
665;SDS011;315;48.738;9.126;2022-12-20T07:37:10;6.50;;;5.00;;
665;SDS011;315;48.738;9.126;2022-12-20T07:39:35;7.20;;;4.63;;
665;SDS011;315;48.738;9.126;2022-12-20T07:42:01;4.27;;;3.80;;
665;SDS011;315;48.738;9.126;2022-12-20T07:44:26;8.97;;;4.97;;
665;SDS011;315;48.738;9.126;2022-12-20T07:46:52;5.07;;;4.00;;
665;SDS011;315;48.738;9.126;2022-12-20T07:49:17;5.77;;;4.20;;
665;SDS011;315;48.738;9.126;2022-12-20T07:51:47;5.40;;;3.67;;
665;SDS011;315;48.738;9.126;2022-12-20T07:54:17;4.77;;;4.23;;
665;SDS011;315;48.738;9.126;2022-12-20T07:56:46;5.10;;;4.23;;
665;SDS011;315;48.738;9.126;2022-12-20T07:59:16;8.47;;;5.90;;
665;SDS011;315;48.738;9.126;2022-12-20T08:01:45;6.97;;;4.40;;
665;SDS011;315;48.738;9.126;2022-12-20T08:04:16;7.13;;;4.57;;
665;SDS011;315;48.738;9.126;2022-12-20T08:06:45;7.30;;;4.53;;
665;SDS011;315;48.738;9.126;2022-12-20T08:09:12;5.93;;;5.30;;
665;SDS011;315;48.738;9.126;2022-12-20T08:11:39;5.50;;;5.03;;
665;SDS011;315;48.738;9.126;2022-12-20T08:14:08;5.83;;;5.33;;
665;SDS011;315;48.738;9.126;2022-12-20T08:16:34;5.77;;;4.60;;
665;SDS011;315;48.738;9.126;2022-12-20T08:19:00;4.70;;;4.20;;
665;SDS011;315;48.738;9.126;2022-12-20T08:21:25;8.27;;;5.80;;
665;SDS011;315;48.738;9.126;2022-12-20T08:23:51;9.47;;;5.77;;
665;SDS011;315;48.738;9.126;2022-12-20T08:26:16;7.63;;;4.73;;
665;SDS011;315;48.738;9.126;2022-12-20T08:28:42;6.33;;;3.93;;
665;SDS011;315;48.738;9.126;2022-12-20T08:31:08;5.50;;;4.30;;
665;SDS011;315;48.738;9.126;2022-12-20T08:33:36;6.03;;;4.00;;
665;SDS011;315;48.738;9.126;2022-12-20T08:36:03;6.07;;;5.20;;
665;SDS011;315;48.738;9.126;2022-12-20T08:38:34;6.60;;;5.20;;
665;SDS011;315;48.738;9.126;2022-12-20T08:41:01;7.23;;;6.13;;
665;SDS011;315;48.738;9.126;2022-12-20T08:43:29;7.97;;;5.23;;
665;SDS011;315;48.738;9.126;2022-12-20T08:45:55;7.27;;;5.80;;
665;SDS011;315;48.738;9.126;2022-12-20T08:48:21;5.20;;;4.70;;
665;SDS011;315;48.738;9.126;2022-12-20T08:50:47;6.40;;;5.80;;
665;SDS011;315;48.738;9.126;2022-12-20T08:53:22;7.07;;;4.50;;
665;SDS011;315;48.738;9.126;2022-12-20T08:55:48;6.67;;;5.53;;
665;SDS011;315;48.738;9.126;2022-12-20T08:58:14;6.50;;;5.13;;
665;SDS011;315;48.738;9.126;2022-12-20T09:00:39;5.73;;;4.40;;
665;SDS011;315;48.738;9.126;2022-12-20T09:03:05;5.97;;;5.30;;
665;SDS011;315;48.738;9.126;2022-12-20T09:05:32;9.00;;;5.70;;
665;SDS011;315;48.738;9.126;2022-12-20T09:07:57;6.97;;;5.80;;
665;SDS011;315;48.738;9.126;2022-12-20T09:10:23;6.43;;;5.83;;
665;SDS011;315;48.738;9.126;2022-12-20T09:12:48;6.03;;;5.27;;
665;SDS011;315;48.738;9.126;2022-12-20T09:15:14;5.77;;;5.20;;
665;SDS011;315;48.738;9.126;2022-12-20T09:17:39;8.77;;;5.10;;
665;SDS011;315;48.738;9.126;2022-12-20T09:20:05;7.77;;;6.03;;
665;SDS011;315;48.738;9.126;2022-12-20T09:22:31;11.97;;;7.40;;
665;SDS011;315;48.738;9.126;2022-12-20T09:24:56;20.10;;;6.43;;
665;SDS011;315;48.738;9.126;2022-12-20T09:27:22;10.37;;;5.17;;
665;SDS011;315;48.738;9.126;2022-12-20T09:29:47;11.40;;;5.20;;
665;SDS011;315;48.738;9.126;2022-12-20T09:32:13;9.47;;;5.13;;
665;SDS011;315;48.738;9.126;2022-12-20T09:34:38;6.27;;;4.73;;
665;SDS011;315;48.738;9.126;2022-12-20T09:37:04;7.90;;;5.20;;
665;SDS011;315;48.738;9.126;2022-12-20T09:39:30;6.63;;;5.70;;
665;SDS011;315;48.738;9.126;2022-12-20T09:41:56;7.10;;;5.63;;
665;SDS011;315;48.738;9.126;2022-12-20T09:44:32;10.97;;;5.67;;
665;SDS011;315;48.738;9.126;2022-12-20T09:47:03;6.73;;;4.73;;
665;SDS011;315;48.738;9.126;2022-12-20T09:49:34;4.70;;;4.27;;
665;SDS011;315;48.738;9.126;2022-12-20T09:54:36;7.70;;;4.87;;
665;SDS011;315;48.738;9.126;2022-12-20T09:59:39;12.00;;;5.53;;
665;SDS011;315;48.738;9.126;2022-12-20T10:02:08;7.93;;;4.43;;
665;SDS011;315;48.738;9.126;2022-12-20T10:04:38;9.83;;;4.63;;
665;SDS011;315;48.738;9.126;2022-12-20T10:23:59;4.30;;;3.90;;
665;SDS011;315;48.738;9.126;2022-12-20T10:26:32;4.90;;;4.40;;
665;SDS011;315;48.738;9.126;2022-12-20T10:28:58;5.63;;;3.90;;
665;SDS011;315;48.738;9.126;2022-12-20T10:31:23;6.97;;;5.20;;
665;SDS011;315;48.738;9.126;2022-12-20T10:33:49;3.80;;;3.50;;
665;SDS011;315;48.738;9.126;2022-12-20T10:36:19;5.23;;;4.13;;
665;SDS011;315;48.738;9.126;2022-12-20T10:39:00;4.10;;;3.70;;
665;SDS011;315;48.738;9.126;2022-12-20T10:41:29;5.90;;;3.50;;
665;SDS011;315;48.738;9.126;2022-12-20T10:44:17;4.97;;;4.00;;
665;SDS011;315;48.738;9.126;2022-12-20T10:46:54;5.40;;;3.80;;
665;SDS011;315;48.738;9.126;2022-12-20T10:49:38;6.80;;;4.50;;
665;SDS011;315;48.738;9.126;2022-12-20T10:54:39;6.93;;;4.93;;
665;SDS011;315;48.738;9.126;2022-12-20T10:57:19;8.90;;;4.77;;
665;SDS011;315;48.738;9.126;2022-12-20T10:59:58;8.00;;;5.17;;
665;SDS011;315;48.738;9.126;2022-12-20T11:02:27;5.30;;;4.70;;
665;SDS011;315;48.738;9.126;2022-12-20T11:07:35;5.83;;;4.10;;
665;SDS011;315;48.738;9.126;2022-12-20T11:10:16;5.53;;;4.73;;
665;SDS011;315;48.738;9.126;2022-12-20T11:13:00;6.47;;;4.37;;
665;SDS011;315;48.738;9.126;2022-12-20T11:15:27;9.93;;;5.70;;
665;SDS011;315;48.738;9.126;2022-12-20T11:18:14;7.57;;;5.50;;
665;SDS011;315;48.738;9.126;2022-12-20T11:20:56;5.17;;;4.67;;
665;SDS011;315;48.738;9.126;2022-12-20T11:23:54;5.73;;;4.50;;
665;SDS011;315;48.738;9.126;2022-12-20T11:29:47;5.20;;;4.70;;
665;SDS011;315;48.738;9.126;2022-12-20T11:36:03;4.20;;;3.90;;
665;SDS011;315;48.738;9.126;2022-12-20T11:38:39;4.47;;;4.00;;
665;SDS011;315;48.738;9.126;2022-12-20T11:41:15;6.50;;;4.10;;
665;SDS011;315;48.738;9.126;2022-12-20T11:51:51;6.97;;;4.60;;
665;SDS011;315;48.738;9.126;2022-12-20T11:54:27;8.77;;;5.10;;
665;SDS011;315;48.738;9.126;2022-12-20T11:57:38;6.37;;;5.23;;
665;SDS011;315;48.738;9.126;2022-12-20T12:00:04;5.60;;;4.67;;
665;SDS011;315;48.738;9.126;2022-12-20T12:02:33;9.97;;;5.57;;
665;SDS011;315;48.738;9.126;2022-12-20T12:05:19;5.20;;;4.70;;
665;SDS011;315;48.738;9.126;2022-12-20T12:07:57;9.33;;;6.60;;
665;SDS011;315;48.738;9.126;2022-12-20T12:10:33;6.73;;;5.97;;
665;SDS011;315;48.738;9.126;2022-12-20T12:15:45;5.20;;;4.70;;
665;SDS011;315;48.738;9.126;2022-12-20T12:18:26;8.93;;;4.63;;
665;SDS011;315;48.738;9.126;2022-12-20T12:21:01;6.37;;;4.90;;
665;SDS011;315;48.738;9.126;2022-12-20T12:26:17;5.67;;;4.87;;
665;SDS011;315;48.738;9.126;2022-12-20T12:29:03;6.90;;;5.60;;
665;SDS011;315;48.738;9.126;2022-12-20T12:46:02;5.13;;;4.63;;
665;SDS011;315;48.738;9.126;2022-12-20T12:48:50;4.60;;;4.17;;
665;SDS011;315;48.738;9.126;2022-12-20T12:51:36;5.20;;;4.33;;
665;SDS011;315;48.738;9.126;2022-12-20T12:56:40;5.00;;;4.00;;
665;SDS011;315;48.738;9.126;2022-12-20T13:11:54;4.97;;;3.60;;
665;SDS011;315;48.738;9.126;2022-12-20T13:16:51;5.03;;;4.53;;
665;SDS011;315;48.738;9.126;2022-12-20T13:21:57;5.03;;;4.00;;
665;SDS011;315;48.738;9.126;2022-12-20T13:25:00;4.60;;;3.97;;
665;SDS011;315;48.738;9.126;2022-12-20T13:27:30;4.10;;;3.70;;
665;SDS011;315;48.738;9.126;2022-12-20T13:38:34;5.93;;;4.07;;
665;SDS011;315;48.738;9.126;2022-12-20T13:41:11;5.80;;;5.00;;
665;SDS011;315;48.738;9.126;2022-12-20T13:43:47;7.60;;;5.00;;
665;SDS011;315;48.738;9.126;2022-12-20T13:46:23;6.07;;;5.43;;
665;SDS011;315;48.738;9.126;2022-12-20T13:49:11;5.40;;;4.53;;
665;SDS011;315;48.738;9.126;2022-12-20T13:51:46;5.40;;;4.90;;
665;SDS011;315;48.738;9.126;2022-12-20T13:54:16;7.70;;;5.67;;
665;SDS011;315;48.738;9.126;2022-12-20T13:59:13;8.23;;;5.20;;
665;SDS011;315;48.738;9.126;2022-12-20T14:01:47;5.67;;;4.80;;
665;SDS011;315;48.738;9.126;2022-12-20T14:04:14;7.60;;;5.37;;
665;SDS011;315;48.738;9.126;2022-12-20T14:06:41;6.53;;;5.93;;
665;SDS011;315;48.738;9.126;2022-12-20T14:12:18;9.20;;;5.40;;
665;SDS011;315;48.738;9.126;2022-12-20T14:14:47;5.37;;;4.80;;
665;SDS011;315;48.738;9.126;2022-12-20T14:17:30;7.93;;;4.70;;
665;SDS011;315;48.738;9.126;2022-12-20T14:20:04;5.17;;;4.70;;
665;SDS011;315;48.738;9.126;2022-12-20T14:22:30;7.27;;;5.40;;
665;SDS011;315;48.738;9.126;2022-12-20T14:24:57;7.20;;;5.17;;
665;SDS011;315;48.738;9.126;2022-12-20T14:27:23;5.80;;;4.93;;
665;SDS011;315;48.738;9.126;2022-12-20T14:29:51;5.77;;;4.60;;
665;SDS011;315;48.738;9.126;2022-12-20T14:32:20;5.20;;;4.80;;
665;SDS011;315;48.738;9.126;2022-12-20T14:34:46;7.53;;;5.17;;
665;SDS011;315;48.738;9.126;2022-12-20T14:37:31;5.20;;;4.40;;
665;SDS011;315;48.738;9.126;2022-12-20T14:42:34;5.60;;;4.97;;
665;SDS011;315;48.738;9.126;2022-12-20T14:45:44;9.40;;;6.90;;
665;SDS011;315;48.738;9.126;2022-12-20T14:47:56;5.73;;;5.10;;
665;SDS011;315;48.738;9.126;2022-12-20T14:50:32;6.40;;;5.40;;
665;SDS011;315;48.738;9.126;2022-12-20T14:52:59;5.30;;;4.80;;
665;SDS011;315;48.738;9.126;2022-12-20T14:55:29;6.57;;;4.50;;
665;SDS011;315;48.738;9.126;2022-12-20T14:57:57;5.50;;;4.20;;
665;SDS011;315;48.738;9.126;2022-12-20T15:00:25;8.00;;;5.47;;
665;SDS011;315;48.738;9.126;2022-12-20T15:11:02;8.13;;;4.73;;
665;SDS011;315;48.738;9.126;2022-12-20T15:13:35;7.43;;;5.00;;
665;SDS011;315;48.738;9.126;2022-12-20T15:16:12;9.30;;;5.60;;
665;SDS011;315;48.738;9.126;2022-12-20T15:18:43;5.77;;;5.13;;
665;SDS011;315;48.738;9.126;2022-12-20T15:21:13;7.93;;;4.80;;
665;SDS011;315;48.738;9.126;2022-12-20T15:23:51;5.83;;;4.90;;
665;SDS011;315;48.738;9.126;2022-12-20T15:26:19;7.20;;;5.17;;
665;SDS011;315;48.738;9.126;2022-12-20T15:28:47;6.17;;;5.57;;
665;SDS011;315;48.738;9.126;2022-12-20T15:31:13;7.57;;;5.57;;
665;SDS011;315;48.738;9.126;2022-12-20T15:33:41;6.77;;;4.97;;
665;SDS011;315;48.738;9.126;2022-12-20T15:36:15;7.80;;;5.60;;
665;SDS011;315;48.738;9.126;2022-12-20T15:38:42;11.37;;;6.10;;
665;SDS011;315;48.738;9.126;2022-12-20T15:41:10;10.30;;;7.20;;
665;SDS011;315;48.738;9.126;2022-12-20T15:43:51;9.43;;;6.20;;
665;SDS011;315;48.738;9.126;2022-12-20T15:46:20;7.20;;;6.50;;
665;SDS011;315;48.738;9.126;2022-12-20T15:48:46;8.00;;;6.37;;
665;SDS011;315;48.738;9.126;2022-12-20T15:51:26;6.53;;;5.90;;
665;SDS011;315;48.738;9.126;2022-12-20T15:53:55;8.83;;;6.17;;
665;SDS011;315;48.738;9.126;2022-12-20T15:56:21;12.73;;;6.00;;
665;SDS011;315;48.738;9.126;2022-12-20T15:58:48;8.40;;;7.07;;
665;SDS011;315;48.738;9.126;2022-12-20T16:01:15;8.03;;;6.17;;
665;SDS011;315;48.738;9.126;2022-12-20T16:03:52;7.57;;;6.20;;
665;SDS011;315;48.738;9.126;2022-12-20T16:06:17;10.87;;;6.60;;
665;SDS011;315;48.738;9.126;2022-12-20T16:08:43;6.90;;;6.00;;
665;SDS011;315;48.738;9.126;2022-12-20T16:13:45;9.07;;;7.20;;
665;SDS011;315;48.738;9.126;2022-12-20T16:16:17;8.90;;;6.90;;
665;SDS011;315;48.738;9.126;2022-12-20T16:18:51;10.03;;;7.10;;
665;SDS011;315;48.738;9.126;2022-12-20T16:21:23;10.30;;;7.90;;
665;SDS011;315;48.738;9.126;2022-12-20T16:23:51;8.77;;;6.43;;
665;SDS011;315;48.738;9.126;2022-12-20T16:26:18;6.50;;;5.90;;
665;SDS011;315;48.738;9.126;2022-12-20T16:28:46;7.50;;;6.10;;
665;SDS011;315;48.738;9.126;2022-12-20T16:31:28;7.17;;;5.50;;
665;SDS011;315;48.738;9.126;2022-12-20T16:34:00;6.17;;;5.53;;
665;SDS011;315;48.738;9.126;2022-12-20T16:36:27;6.53;;;5.83;;
665;SDS011;315;48.738;9.126;2022-12-20T16:38:53;7.10;;;5.77;;
665;SDS011;315;48.738;9.126;2022-12-20T16:41:20;8.53;;;6.40;;
665;SDS011;315;48.738;9.126;2022-12-20T16:43:52;6.87;;;5.80;;
665;SDS011;315;48.738;9.126;2022-12-20T16:46:19;9.43;;;6.70;;
665;SDS011;315;48.738;9.126;2022-12-20T16:48:46;7.23;;;6.50;;
665;SDS011;315;48.738;9.126;2022-12-20T16:51:24;6.37;;;5.77;;
665;SDS011;315;48.738;9.126;2022-12-20T16:53:52;6.37;;;5.77;;
665;SDS011;315;48.738;9.126;2022-12-20T16:56:19;8.30;;;6.60;;
665;SDS011;315;48.738;9.126;2022-12-20T16:58:44;7.73;;;6.93;;
665;SDS011;315;48.738;9.126;2022-12-20T17:01:14;9.53;;;6.50;;
665;SDS011;315;48.738;9.126;2022-12-20T17:03:42;6.90;;;6.20;;
665;SDS011;315;48.738;9.126;2022-12-20T17:06:09;12.13;;;8.23;;
665;SDS011;315;48.738;9.126;2022-12-20T17:08:36;6.70;;;6.00;;
665;SDS011;315;48.738;9.126;2022-12-20T17:11:02;8.53;;;6.63;;
665;SDS011;315;48.738;9.126;2022-12-20T17:13:28;7.10;;;5.63;;
665;SDS011;315;48.738;9.126;2022-12-20T17:15:53;7.10;;;6.17;;
665;SDS011;315;48.738;9.126;2022-12-20T17:18:19;9.13;;;6.27;;
665;SDS011;315;48.738;9.126;2022-12-20T17:20:44;9.03;;;6.20;;
665;SDS011;315;48.738;9.126;2022-12-20T17:23:10;16.93;;;7.50;;
665;SDS011;315;48.738;9.126;2022-12-20T17:25:39;7.63;;;6.93;;
665;SDS011;315;48.738;9.126;2022-12-20T17:28:05;8.47;;;6.50;;
665;SDS011;315;48.738;9.126;2022-12-20T17:30:31;7.73;;;7.03;;
665;SDS011;315;48.738;9.126;2022-12-20T17:32:56;9.83;;;7.03;;
665;SDS011;315;48.738;9.126;2022-12-20T17:35:24;11.50;;;6.97;;
665;SDS011;315;48.738;9.126;2022-12-20T17:37:52;7.03;;;6.33;;
665;SDS011;315;48.738;9.126;2022-12-20T17:40:20;11.10;;;7.40;;
665;SDS011;315;48.738;9.126;2022-12-20T17:42:46;8.33;;;6.97;;
665;SDS011;315;48.738;9.126;2022-12-20T17:45:23;8.63;;;6.80;;
665;SDS011;315;48.738;9.126;2022-12-20T17:48:00;7.57;;;6.73;;
665;SDS011;315;48.738;9.126;2022-12-20T17:50:25;7.63;;;6.57;;
665;SDS011;315;48.738;9.126;2022-12-20T17:52:51;6.43;;;5.80;;
665;SDS011;315;48.738;9.126;2022-12-20T17:55:25;9.50;;;6.37;;
665;SDS011;315;48.738;9.126;2022-12-20T17:57:52;7.00;;;6.23;;